Alpine, New Jersey
Current Conditions -  °F | °C
As of 9:51 PM on Thursday 27 Nov 2014 (Local Time) from KTEB Reporting Station
Overcast Overcast  
Wind Chill: 28°   Ceiling: 4200
Heat Index: 35°   Visibility: 10mi
Dew Point: 25°   Wind: 9mph
Humidity: 67%   Direction: 310°NW
Pressure: 30.05"   Gusts: NA
Location:  40.96°N, 73.93°W
Report Text: KTEB 280251Z 31008KT 10SM OVC042 02/M04 A3005 RMK AO2 SLP177 T00171039 51007 $
Loading
Personal Weather Stations






























Interactive Weather Map New forecast layout! Learn more

10-Day Weather Forecast

Advertisements
Track Severe Weather on mobile